createdAt,value
2023-03-24T00:00:34.547Z,9.90
2023-03-24T00:03:02.747Z,9.90
2023-03-24T00:05:30.584Z,9.90
2023-03-24T00:08:02.090Z,9.90
2023-03-24T00:10:34.583Z,9.90
2023-03-24T00:13:02.103Z,9.90
2023-03-24T00:15:29.551Z,9.90
2023-03-24T00:17:58.023Z,9.90
2023-03-24T00:20:26.908Z,9.90
2023-03-24T00:22:59.345Z,9.90
2023-03-24T00:25:36.221Z,9.90
2023-03-24T00:28:05.929Z,9.90
2023-03-24T00:30:34.991Z,9.90
2023-03-24T00:33:02.306Z,9.90
2023-03-24T00:35:29.571Z,9.90
2023-03-24T00:37:56.515Z,9.90
2023-03-24T00:40:28.802Z,9.90
2023-03-24T00:42:55.651Z,9.90
2023-03-24T00:45:25.832Z,9.90
2023-03-24T00:47:57.872Z,9.90
2023-03-24T00:50:26.479Z,9.90
2023-03-24T00:52:55.508Z,10.00
2023-03-24T00:55:22.958Z,9.90
2023-03-24T00:57:51.021Z,9.90
2023-03-24T01:00:23.950Z,9.90
2023-03-24T01:02:54.533Z,9.90
2023-03-24T01:05:25.610Z,10.00
2023-03-24T01:07:53.593Z,10.00
2023-03-24T01:10:26.409Z,10.00
2023-03-24T01:12:58.237Z,10.00
2023-03-24T01:15:30.239Z,10.00
2023-03-24T01:17:57.795Z,10.10
2023-03-24T01:20:25.468Z,10.00
2023-03-24T01:22:52.759Z,10.00
2023-03-24T01:25:24.201Z,10.00
2023-03-24T01:27:53.467Z,10.00
2023-03-24T01:30:24.883Z,10.00
2023-03-24T01:32:53.338Z,10.00
2023-03-24T01:35:22.733Z,10.00
2023-03-24T01:37:50.121Z,10.10
2023-03-24T01:40:22.774Z,10.10
2023-03-24T01:42:51.326Z,10.10
2023-03-24T01:45:40.098Z,10.10
2023-03-24T01:48:30.650Z,10.10
2023-03-24T01:51:08.561Z,10.10
2023-03-24T01:53:48.898Z,10.10
2023-03-24T01:56:15.922Z,10.10
2023-03-24T01:58:52.223Z,10.20
2023-03-24T02:01:20.285Z,10.20
2023-03-24T02:03:48.422Z,10.20
2023-03-24T02:06:18.510Z,10.20
2023-03-24T02:08:55.240Z,10.20
2023-03-24T02:11:26.924Z,10.30
2023-03-24T02:13:53.931Z,10.30
2023-03-24T02:16:38.756Z,10.20
2023-03-24T02:19:47.619Z,10.30
2023-03-24T02:22:29.796Z,10.30
2023-03-24T02:25:10.577Z,10.30
2023-03-24T02:28:20.393Z,10.30
2023-03-24T02:31:16.257Z,10.30
2023-03-24T02:34:26.301Z,10.30
2023-03-24T02:37:21.276Z,10.30
2023-03-24T02:40:08.269Z,10.30
2023-03-24T02:43:02.974Z,10.30
2023-03-24T02:45:37.357Z,10.30
2023-03-24T02:48:27.581Z,10.30
2023-03-24T02:51:14.832Z,10.30
2023-03-24T02:54:19.953Z,10.30
2023-03-24T02:56:55.878Z,10.20
2023-03-24T02:59:39.059Z,10.20
2023-03-24T03:02:14.514Z,10.20
2023-03-24T03:04:52.348Z,10.20
2023-03-24T03:07:26.903Z,10.30
2023-03-24T03:10:02.457Z,10.30
2023-03-24T03:12:36.823Z,10.30
2023-03-24T03:15:13.999Z,10.20
2023-03-24T03:18:20.169Z,10.20
2023-03-24T03:20:54.668Z,10.20
2023-03-24T03:23:37.775Z,10.30
2023-03-24T03:26:12.427Z,10.30
2023-03-24T03:28:49.756Z,10.30
2023-03-24T03:31:30.040Z,10.30
2023-03-24T03:34:02.096Z,10.30
2023-03-24T03:36:43.935Z,10.30
2023-03-24T03:39:40.692Z,10.30
2023-03-24T03:42:07.728Z,10.30
2023-03-24T03:44:34.755Z,10.40
2023-03-24T03:47:02.032Z,10.30
2023-03-24T03:49:28.882Z,10.30
2023-03-24T03:51:57.322Z,10.40
2023-03-24T03:54:28.671Z,10.40
2023-03-24T03:56:56.482Z,10.40
2023-03-24T03:59:34.968Z,10.40
2023-03-24T04:02:34.006Z,10.40
2023-03-24T04:05:30.339Z,10.40
2023-03-24T04:08:21.916Z,10.40
2023-03-24T04:11:02.300Z,10.40
2023-03-24T04:14:18.437Z,10.40
2023-03-24T04:17:03.221Z,10.40
2023-03-24T04:19:46.565Z,10.40
2023-03-24T04:22:50.876Z,10.30
2023-03-24T04:25:35.138Z,10.30
2023-03-24T04:28:14.287Z,10.30
2023-03-24T04:30:50.408Z,10.30
2023-03-24T04:34:12.188Z,10.40
2023-03-24T04:36:55.068Z,10.40
2023-03-24T04:39:28.240Z,10.40
2023-03-24T04:42:07.378Z,10.40
2023-03-24T04:44:38.162Z,10.40
2023-03-24T04:47:07.584Z,10.40
2023-03-24T04:49:39.227Z,10.40
2023-03-24T04:52:07.992Z,10.40
2023-03-24T04:54:34.900Z,10.40
2023-03-24T04:57:02.171Z,10.40
2023-03-24T04:59:33.920Z,10.50
2023-03-24T05:02:02.129Z,10.40
2023-03-24T05:04:30.381Z,10.40
2023-03-24T05:06:57.288Z,10.40
2023-03-24T05:09:25.833Z,10.40
2023-03-24T05:11:53.098Z,10.40
2023-03-24T05:14:20.366Z,10.40
2023-03-24T05:16:47.267Z,10.40
2023-03-24T05:19:14.276Z,10.40
2023-03-24T05:21:41.430Z,10.40
2023-03-24T05:24:08.760Z,10.40
2023-03-24T05:26:35.896Z,10.50
2023-03-24T05:29:02.855Z,10.50
2023-03-24T05:31:29.702Z,10.50
2023-03-24T05:33:56.657Z,10.50
2023-03-24T05:36:23.694Z,10.60
2023-03-24T05:38:50.656Z,10.50
2023-03-24T05:41:17.442Z,10.50
2023-03-24T05:43:44.298Z,10.50
2023-03-24T05:46:11.204Z,10.50
2023-03-24T05:48:38.084Z,10.50
2023-03-24T05:51:05.169Z,10.50
2023-03-24T05:53:32.163Z,10.50
2023-03-24T05:55:59.028Z,10.40
2023-03-24T05:58:25.841Z,10.50
2023-03-24T06:00:54.492Z,10.30
2023-03-24T06:03:21.495Z,10.10
2023-03-24T06:05:49.320Z,9.80
2023-03-24T06:08:16.920Z,9.70
2023-03-24T06:10:43.843Z,9.50
2023-03-24T06:13:11.145Z,9.40
2023-03-24T06:15:39.626Z,9.30
2023-03-24T06:18:07.910Z,9.30
2023-03-24T06:20:36.089Z,9.30
2023-03-24T06:23:03.385Z,9.20
2023-03-24T06:25:30.233Z,9.20
2023-03-24T06:28:05.791Z,9.20
2023-03-24T06:30:32.599Z,9.10
2023-03-24T06:33:00.157Z,9.20
2023-03-24T06:35:27.116Z,9.20
2023-03-24T06:37:53.902Z,9.20
2023-03-24T06:40:20.867Z,9.30
2023-03-24T06:42:49.675Z,9.40
2023-03-24T06:45:16.713Z,9.70
2023-03-24T06:47:43.615Z,9.80
2023-03-24T06:50:11.117Z,10.00
2023-03-24T06:52:37.969Z,10.10
2023-03-24T06:55:06.318Z,10.10
2023-03-24T06:57:33.183Z,10.10
2023-03-24T06:59:59.971Z,10.10
2023-03-24T07:02:34.429Z,10.10
2023-03-24T07:05:07.221Z,10.20
2023-03-24T07:08:08.337Z,10.10
2023-03-24T07:10:22.603Z,10.10
2023-03-24T07:12:49.427Z,10.00
2023-03-24T07:15:16.363Z,10.10
2023-03-24T07:17:43.346Z,10.10
2023-03-24T07:20:10.678Z,10.20
2023-03-24T07:22:38.045Z,10.30
2023-03-24T07:25:06.470Z,10.30
2023-03-24T07:27:34.215Z,10.30
2023-03-24T07:30:02.140Z,10.30
2023-03-24T07:32:34.669Z,10.30
2023-03-24T07:35:02.570Z,10.30
2023-03-24T07:37:29.454Z,10.20
2023-03-24T07:39:56.311Z,10.20
2023-03-24T07:42:23.157Z,10.10
2023-03-24T07:44:49.929Z,10.10
2023-03-24T07:47:17.585Z,10.00
2023-03-24T07:49:44.392Z,10.00
2023-03-24T07:52:11.372Z,9.90
2023-03-24T07:54:38.163Z,9.80
2023-03-24T07:57:05.036Z,9.80
2023-03-24T07:59:34.021Z,9.70
2023-03-24T08:02:01.177Z,9.60
2023-03-24T08:04:28.592Z,9.40
2023-03-24T08:06:55.573Z,9.40
2023-03-24T08:09:24.152Z,9.30
2023-03-24T08:11:51.403Z,9.20
2023-03-24T08:14:18.173Z,9.10
2023-03-24T08:16:46.269Z,9.00
2023-03-24T08:19:13.436Z,8.80
2023-03-24T08:21:40.771Z,8.80
2023-03-24T08:24:07.768Z,8.70
2023-03-24T08:26:35.330Z,8.60
2023-03-24T08:29:03.041Z,8.60
2023-03-24T08:31:36.730Z,8.60
2023-03-24T08:34:06.563Z,8.60
2023-03-24T08:36:33.680Z,8.60
2023-03-24T08:39:01.351Z,8.60
2023-03-24T08:41:34.855Z,8.70
2023-03-24T08:44:06.680Z,8.70
2023-03-24T08:46:34.890Z,8.80
2023-03-24T08:49:02.689Z,8.90
2023-03-24T08:51:31.261Z,8.90
2023-03-24T08:53:58.657Z,9.00
2023-03-24T08:56:25.901Z,9.10
2023-03-24T08:58:53.915Z,9.10
2023-03-24T09:01:22.852Z,9.20
2023-03-24T09:03:50.622Z,9.40
2023-03-24T09:06:17.530Z,9.40
2023-03-24T09:08:44.398Z,9.50
2023-03-24T09:11:18.255Z,9.80
2023-03-24T09:13:45.959Z,10.00
2023-03-24T09:16:12.838Z,10.20
2023-03-24T09:18:39.910Z,10.30
2023-03-24T09:21:08.064Z,10.30
2023-03-24T09:23:36.191Z,10.40
2023-03-24T09:26:04.124Z,10.60
2023-03-24T09:28:31.523Z,10.90
2023-03-24T09:31:05.469Z,11.10
2023-03-24T09:33:34.705Z,11.40
2023-03-24T09:36:03.804Z,12.40
2023-03-24T09:38:31.042Z,12.90
2023-03-24T09:41:03.583Z,13.20
2023-03-24T09:43:55.133Z,13.50
2023-03-24T09:46:51.199Z,13.60
2023-03-24T09:49:27.094Z,13.90
2023-03-24T09:52:12.225Z,14.20
2023-03-24T09:54:55.637Z,14.50
2023-03-24T09:57:37.966Z,15.50
2023-03-24T10:00:27.852Z,16.20
2023-03-24T10:03:01.406Z,16.90
2023-03-24T10:05:57.331Z,17.40
2023-03-24T10:08:33.633Z,17.50
2023-03-24T10:11:30.544Z,17.80
2023-03-24T10:14:24.182Z,18.10
2023-03-24T10:17:18.114Z,18.80
2023-03-24T10:19:50.974Z,19.30
2023-03-24T10:22:45.868Z,19.90
2023-03-24T10:26:09.843Z,19.40
2023-03-24T10:28:53.001Z,19.00
2023-03-24T10:31:31.780Z,19.40
2023-03-24T10:33:59.473Z,19.40
2023-03-24T10:36:28.856Z,19.70
2023-03-24T10:38:57.476Z,20.30
2023-03-24T10:41:29.343Z,20.40
2023-03-24T10:43:59.234Z,20.30
2023-03-24T10:46:31.354Z,19.90
2023-03-24T10:49:12.142Z,19.60
2023-03-24T10:51:41.251Z,19.30
2023-03-24T10:54:32.963Z,19.10
2023-03-24T10:57:05.500Z,18.40
2023-03-24T10:59:59.701Z,17.60
2023-03-24T11:02:32.056Z,17.70
2023-03-24T11:05:12.771Z,17.90
2023-03-24T11:07:44.930Z,17.20
2023-03-24T11:10:13.677Z,16.30
2023-03-24T11:12:44.223Z,15.50
2023-03-24T11:15:33.827Z,14.80
2023-03-24T11:18:21.090Z,14.10
2023-03-24T11:21:04.516Z,13.90
2023-03-24T11:23:45.697Z,13.70
2023-03-24T11:26:24.018Z,13.70
2023-03-24T11:29:01.918Z,13.50
2023-03-24T11:31:38.280Z,13.30
2023-03-24T11:34:19.888Z,13.20
2023-03-24T11:37:00.338Z,13.30
2023-03-24T11:39:31.489Z,13.30
2023-03-24T11:42:10.539Z,13.40
2023-03-24T11:44:53.456Z,13.30
2023-03-24T11:47:33.283Z,13.50
2023-03-24T11:50:09.478Z,14.00
2023-03-24T11:52:51.133Z,14.30
2023-03-24T11:55:48.303Z,14.50
2023-03-24T11:58:31.771Z,14.60
2023-03-24T12:01:07.817Z,14.70
2023-03-24T12:04:05.691Z,14.60
2023-03-24T12:06:53.722Z,14.30
2023-03-24T12:09:34.063Z,14.30
2023-03-24T12:12:42.477Z,14.10
2023-03-24T12:15:57.134Z,14.00
2023-03-24T12:18:48.081Z,13.80
2023-03-24T12:21:45.734Z,13.60
2023-03-24T12:25:04.179Z,13.70
2023-03-24T12:28:10.132Z,13.60
2023-03-24T12:31:30.082Z,13.40
2023-03-24T12:34:37.954Z,13.20
2023-03-24T12:37:49.773Z,13.20
2023-03-24T12:41:02.520Z,13.40
2023-03-24T12:43:52.554Z,13.30
2023-03-24T12:47:25.765Z,13.40
2023-03-24T12:50:29.071Z,13.60
2023-03-24T12:53:14.321Z,13.40
2023-03-24T12:56:04.047Z,13.40
2023-03-24T12:58:49.781Z,13.40
2023-03-24T13:01:37.427Z,13.30
2023-03-24T13:04:30.450Z,13.30
2023-03-24T13:07:12.577Z,13.40
2023-03-24T13:09:46.917Z,13.60
2023-03-24T13:12:22.309Z,13.80
2023-03-24T13:15:13.056Z,13.90
2023-03-24T13:17:53.589Z,14.10
2023-03-24T13:20:35.238Z,14.30
2023-03-24T13:23:38.118Z,14.50
2023-03-24T13:26:38.960Z,14.50
2023-03-24T13:29:56.601Z,14.50
2023-03-24T13:32:32.057Z,14.30
2023-03-24T13:35:53.533Z,14.40
2023-03-24T13:39:06.231Z,14.60
2023-03-24T13:41:39.811Z,14.80
2023-03-24T13:44:20.784Z,15.00
2023-03-24T13:47:09.501Z,15.10
2023-03-24T13:49:36.771Z,15.10
2023-03-24T13:52:18.985Z,15.10
2023-03-24T13:54:48.787Z,14.90
2023-03-24T13:57:20.662Z,14.80
2023-03-24T14:00:26.419Z,14.90
2023-03-24T14:03:31.863Z,15.10
2023-03-24T14:06:05.391Z,15.20
2023-03-24T14:08:52.220Z,15.20
2023-03-24T14:11:34.597Z,15.30
2023-03-24T14:14:13.532Z,15.20
2023-03-24T14:16:50.344Z,15.30
2023-03-24T14:19:19.795Z,15.40
2023-03-24T14:22:04.437Z,15.50
2023-03-24T14:24:33.054Z,15.30
2023-03-24T14:27:00.195Z,15.30
2023-03-24T14:29:50.615Z,15.20
2023-03-24T14:32:22.863Z,15.20
2023-03-24T14:35:00.140Z,14.90
2023-03-24T14:37:29.113Z,14.80
2023-03-24T14:39:58.709Z,14.80
2023-03-24T14:42:34.462Z,14.80
2023-03-24T14:45:27.719Z,14.90
2023-03-24T14:48:01.015Z,14.90
2023-03-24T14:50:29.579Z,15.00
2023-03-24T14:53:03.323Z,14.80
2023-03-24T14:55:31.482Z,14.60
2023-03-24T14:58:09.906Z,14.30
2023-03-24T15:00:51.823Z,14.10
2023-03-24T15:03:40.233Z,14.00
2023-03-24T15:06:23.352Z,13.90
2023-03-24T15:08:59.614Z,14.00
2023-03-24T15:11:32.315Z,14.10
2023-03-24T15:14:22.131Z,14.20
2023-03-24T15:17:21.985Z,14.00
2023-03-24T15:19:54.604Z,13.90
2023-03-24T15:22:21.760Z,13.80
2023-03-24T15:24:52.974Z,13.80
2023-03-24T15:27:29.003Z,13.80
2023-03-24T15:29:59.924Z,13.80
2023-03-24T15:32:32.078Z,13.90
2023-03-24T15:35:08.789Z,13.70
2023-03-24T15:37:41.497Z,13.60
2023-03-24T15:40:31.533Z,13.60
2023-03-24T15:43:03.053Z,13.40
2023-03-24T15:45:35.233Z,13.30
2023-03-24T15:48:15.472Z,13.20
2023-03-24T15:51:00.784Z,12.90
2023-03-24T15:53:37.487Z,12.50
2023-03-24T15:56:18.160Z,12.00
2023-03-24T15:58:56.201Z,11.60
2023-03-24T16:01:36.175Z,11.20
2023-03-24T16:04:11.708Z,11.00
2023-03-24T16:06:48.678Z,10.90
2023-03-24T16:09:21.722Z,10.90
2023-03-24T16:11:49.198Z,11.00
2023-03-24T16:14:30.582Z,10.90
2023-03-24T16:17:02.161Z,11.00
2023-03-24T16:19:29.360Z,11.10
2023-03-24T16:21:58.009Z,11.10
2023-03-24T16:24:24.942Z,11.10
2023-03-24T16:26:51.775Z,10.90
2023-03-24T16:29:22.310Z,10.80
2023-03-24T16:31:52.855Z,10.80
2023-03-24T16:34:21.841Z,10.60
2023-03-24T16:36:52.346Z,10.40
2023-03-24T16:39:26.087Z,10.40
2023-03-24T16:41:53.412Z,10.30
2023-03-24T16:44:21.482Z,10.10
2023-03-24T16:46:53.890Z,10.00
2023-03-24T16:49:22.699Z,9.90
2023-03-24T16:51:50.614Z,9.80
2023-03-24T16:54:17.768Z,9.70
2023-03-24T16:56:44.612Z,9.70
2023-03-24T16:59:14.860Z,9.70
2023-03-24T17:01:45.791Z,9.70
2023-03-24T17:04:16.805Z,9.80
2023-03-24T17:06:52.758Z,9.80
2023-03-24T17:09:21.151Z,9.90
2023-03-24T17:11:55.306Z,9.90
2023-03-24T17:14:22.333Z,10.00
2023-03-24T17:16:51.202Z,10.10
2023-03-24T17:19:21.816Z,10.00
2023-03-24T17:22:03.050Z,10.00
2023-03-24T17:24:35.910Z,10.00
2023-03-24T17:27:03.884Z,9.70
2023-03-24T17:29:31.654Z,9.30
2023-03-24T17:31:58.533Z,8.90
2023-03-24T17:34:25.575Z,8.60
2023-03-24T17:36:52.418Z,8.30
2023-03-24T17:39:21.160Z,8.20
2023-03-24T17:41:48.044Z,8.10
2023-03-24T17:44:14.955Z,8.00
2023-03-24T17:46:41.928Z,8.00
2023-03-24T17:49:08.838Z,8.00
2023-03-24T17:51:35.765Z,8.00
2023-03-24T17:54:04.138Z,8.10
2023-03-24T17:56:31.450Z,8.00
2023-03-24T17:59:03.418Z,8.00
2023-03-24T18:01:30.849Z,8.00
2023-03-24T18:03:58.423Z,8.00
2023-03-24T18:06:27.285Z,8.10
2023-03-24T18:08:54.371Z,8.10
2023-03-24T18:11:21.227Z,8.10
2023-03-24T18:13:48.169Z,8.00
2023-03-24T18:18:46.735Z,8.00
2023-03-24T18:21:13.665Z,7.90
2023-03-24T18:23:40.538Z,7.80
2023-03-24T18:26:08.782Z,7.80
2023-03-24T18:28:38.723Z,7.70
2023-03-24T18:31:15.698Z,7.60
2023-03-24T18:33:45.965Z,7.40
2023-03-24T18:36:26.049Z,7.30
2023-03-24T18:39:12.035Z,7.20
2023-03-24T18:41:39.941Z,7.10
2023-03-24T18:44:12.250Z,6.90
2023-03-24T18:46:40.378Z,6.70
2023-03-24T18:49:07.936Z,6.60
2023-03-24T18:51:35.861Z,6.60
2023-03-24T18:54:02.669Z,6.60
2023-03-24T18:56:29.496Z,6.70
2023-03-24T18:58:56.394Z,6.80
2023-03-24T19:01:23.419Z,6.90
2023-03-24T19:03:52.609Z,6.90
2023-03-24T19:06:20.025Z,7.00
2023-03-24T19:08:52.119Z,7.10
2023-03-24T19:11:19.329Z,7.10
2023-03-24T19:13:49.653Z,7.20
2023-03-24T19:16:19.031Z,7.20
2023-03-24T19:18:48.412Z,7.20
2023-03-24T19:21:16.835Z,7.20
2023-03-24T19:23:46.600Z,7.20
2023-03-24T19:26:16.194Z,7.20
2023-03-24T19:28:43.801Z,7.20
2023-03-24T19:31:15.501Z,7.20
2023-03-24T19:33:42.453Z,7.20
2023-03-24T19:36:10.508Z,7.20
2023-03-24T19:38:39.189Z,7.10
2023-03-24T19:41:12.341Z,7.00
2023-03-24T19:43:39.545Z,7.00
2023-03-24T19:46:08.020Z,7.00
2023-03-24T19:48:35.826Z,7.00
2023-03-24T19:51:04.463Z,7.00
2023-03-24T19:53:31.946Z,6.90
2023-03-24T19:55:59.645Z,7.00
2023-03-24T19:58:26.662Z,7.00
2023-03-24T20:00:53.659Z,7.00
2023-03-24T20:03:21.123Z,7.00
2023-03-24T20:05:49.328Z,7.00
2023-03-24T20:08:16.602Z,7.00
2023-03-24T20:10:43.628Z,7.00
2023-03-24T20:13:10.652Z,7.10
2023-03-24T20:15:37.764Z,7.10
2023-03-24T20:18:05.130Z,7.20
2023-03-24T20:20:32.299Z,7.20
2023-03-24T20:22:59.078Z,7.10
2023-03-24T20:25:26.385Z,7.10
2023-03-24T20:27:54.049Z,7.10
2023-03-24T20:30:20.989Z,7.00
2023-03-24T20:32:48.292Z,6.90
2023-03-24T20:35:15.887Z,6.90
2023-03-24T20:37:43.045Z,7.00
2023-03-24T20:40:10.524Z,7.00
2023-03-24T20:42:38.457Z,7.10
2023-03-24T20:45:08.222Z,7.20
2023-03-24T20:47:36.593Z,7.20
2023-03-24T20:50:06.105Z,7.30
2023-03-24T20:52:33.191Z,7.40
2023-03-24T20:55:01.498Z,7.40
2023-03-24T20:57:30.131Z,7.40
2023-03-24T20:59:57.106Z,7.50
2023-03-24T21:02:24.670Z,7.50
2023-03-24T21:04:51.660Z,7.50
2023-03-24T21:07:18.622Z,7.50
2023-03-24T21:09:45.474Z,7.50
2023-03-24T21:12:12.386Z,7.50
2023-03-24T21:14:40.958Z,7.50
2023-03-24T21:17:07.807Z,7.40
2023-03-24T21:19:34.700Z,7.40
2023-03-24T21:22:03.005Z,7.40
2023-03-24T21:24:29.892Z,7.40
2023-03-24T21:26:57.209Z,7.40
2023-03-24T21:29:25.985Z,7.30
2023-03-24T21:31:52.935Z,7.30
2023-03-24T21:34:19.786Z,7.30
2023-03-24T21:36:49.469Z,7.30
2023-03-24T21:39:17.143Z,7.30
2023-03-24T21:41:44.058Z,7.30
2023-03-24T21:44:11.129Z,7.30
2023-03-24T21:46:38.012Z,7.30
2023-03-24T21:49:05.427Z,7.30
2023-03-24T21:51:34.623Z,7.20
2023-03-24T21:54:04.557Z,7.20
2023-03-24T21:56:35.993Z,7.20
2023-03-24T21:59:02.830Z,7.20
2023-03-24T22:01:31.083Z,7.20
2023-03-24T22:03:58.749Z,7.20
2023-03-24T22:06:29.178Z,7.20
2023-03-24T22:08:58.346Z,7.20
2023-03-24T22:11:25.830Z,7.10
2023-03-24T22:13:52.975Z,7.00
2023-03-24T22:16:19.781Z,7.00
2023-03-24T22:18:47.393Z,7.00
2023-03-24T22:21:14.833Z,6.90
2023-03-24T22:23:42.798Z,6.90
2023-03-24T22:26:14.196Z,6.90
2023-03-24T22:28:43.160Z,7.00
2023-03-24T22:31:14.312Z,7.00
2023-03-24T22:33:41.536Z,7.00
2023-03-24T22:36:09.859Z,6.90
2023-03-24T22:38:36.822Z,6.90
2023-03-24T22:41:08.363Z,6.90
2023-03-24T22:43:36.380Z,6.80
2023-03-24T22:46:03.756Z,6.80
2023-03-24T22:48:31.311Z,6.80
2023-03-24T22:50:58.283Z,6.70
2023-03-24T22:53:25.132Z,6.70
2023-03-24T22:55:52.223Z,6.70
2023-03-24T22:58:19.467Z,6.70
2023-03-24T23:00:50.074Z,6.70
2023-03-24T23:03:17.074Z,6.70
2023-03-24T23:05:46.103Z,6.80
2023-03-24T23:08:15.588Z,6.90
2023-03-24T23:10:46.867Z,6.90
2023-03-24T23:13:13.825Z,6.90
2023-03-24T23:15:42.433Z,6.90
2023-03-24T23:18:10.382Z,7.00
2023-03-24T23:20:37.524Z,7.00
2023-03-24T23:23:06.852Z,7.00
2023-03-24T23:25:45.557Z,7.00
2023-03-24T23:28:13.490Z,7.00
2023-03-24T23:30:41.251Z,7.00
2023-03-24T23:33:08.950Z,7.00
2023-03-24T23:35:37.344Z,7.00
2023-03-24T23:38:05.404Z,7.00
2023-03-24T23:40:32.292Z,7.00
2023-03-24T23:43:00.344Z,6.90
2023-03-24T23:45:28.040Z,7.00
2023-03-24T23:47:54.983Z,7.00
2023-03-24T23:50:21.965Z,6.90
2023-03-24T23:52:48.822Z,6.90
2023-03-24T23:55:18.067Z,6.90
2023-03-24T23:57:45.504Z,6.90
